createdAt,value
2018-12-02T00:01:06.661Z,94.52
2018-12-02T00:03:34.909Z,94.63
2018-12-02T00:06:03.135Z,94.76
2018-12-02T00:08:31.375Z,94.64
2018-12-02T00:10:59.659Z,94.64
2018-12-02T00:13:28.094Z,94.67
2018-12-02T00:15:56.331Z,94.80
2018-12-02T00:18:24.553Z,94.64
2018-12-02T00:20:52.783Z,94.58
2018-12-02T00:23:21.012Z,94.55
2018-12-02T00:25:49.273Z,94.57
2018-12-02T00:28:17.469Z,94.56
2018-12-02T00:30:45.703Z,94.54
2018-12-02T00:33:15.571Z,94.41
2018-12-02T00:35:45.642Z,94.32
2018-12-02T00:38:15.476Z,94.50
2018-12-02T00:40:47.931Z,94.48
2018-12-02T00:43:36.906Z,94.37
2018-12-02T00:46:25.513Z,94.37
2018-12-02T00:48:53.700Z,94.36
2018-12-02T00:51:21.928Z,94.32
2018-12-02T00:53:50.155Z,94.03
2018-12-02T00:56:37.299Z,94.16
2018-12-02T00:59:05.530Z,94.02
2018-12-02T01:01:33.810Z,94.14
2018-12-02T01:04:02.026Z,94.17
2018-12-02T01:06:30.306Z,93.94
2018-12-02T01:08:58.649Z,93.89
2018-12-02T01:11:26.902Z,93.77
2018-12-02T01:13:55.133Z,93.79
2018-12-02T01:16:23.386Z,93.59
2018-12-02T01:18:51.594Z,93.51
2018-12-02T01:21:19.864Z,93.49
2018-12-02T01:23:48.087Z,93.44
2018-12-02T01:26:16.315Z,93.17
2018-12-02T01:28:44.522Z,92.98
2018-12-02T01:31:12.776Z,92.92
2018-12-02T01:33:40.998Z,93.00
2018-12-02T01:36:09.239Z,92.98
2018-12-02T01:38:37.447Z,92.89
2018-12-02T01:41:06.166Z,92.67
2018-12-02T01:43:34.370Z,92.55
2018-12-02T01:46:02.614Z,92.37
2018-12-02T01:48:30.823Z,92.25
2018-12-02T01:50:59.081Z,92.21
2018-12-02T01:53:27.311Z,92.05
2018-12-02T01:55:55.514Z,91.92
2018-12-02T01:58:23.741Z,91.79
2018-12-02T02:00:51.951Z,91.78
2018-12-02T02:03:20.183Z,92.01
2018-12-02T02:05:48.392Z,91.85
2018-12-02T02:08:16.634Z,91.87
2018-12-02T02:10:44.840Z,91.75
2018-12-02T02:13:13.067Z,91.71
2018-12-02T02:15:41.295Z,91.66
2018-12-02T02:18:09.538Z,91.63
2018-12-02T02:20:37.745Z,91.66
2018-12-02T02:23:06.429Z,91.50
2018-12-02T02:25:34.626Z,91.36
2018-12-02T02:28:02.850Z,91.44
2018-12-02T02:30:31.105Z,91.46
2018-12-02T02:32:59.333Z,91.59
2018-12-02T02:35:27.550Z,91.46
2018-12-02T02:37:57.027Z,91.45
2018-12-02T02:40:44.722Z,91.28
2018-12-02T02:43:12.969Z,91.08
2018-12-02T02:45:41.180Z,90.85
2018-12-02T02:48:09.428Z,90.71
2018-12-02T02:50:37.650Z,90.59
2018-12-02T02:53:05.913Z,90.66
2018-12-02T02:55:34.117Z,90.68
2018-12-02T02:58:02.358Z,90.60
2018-12-02T03:00:30.571Z,90.54
2018-12-02T03:02:58.778Z,90.58
2018-12-02T03:05:27.007Z,90.59
2018-12-02T03:07:55.226Z,90.58
2018-12-02T03:10:23.430Z,90.52
2018-12-02T03:12:52.651Z,90.55
2018-12-02T03:15:21.513Z,90.60
2018-12-02T03:17:49.737Z,90.59
2018-12-02T03:20:18.728Z,90.69
2018-12-02T03:22:50.983Z,90.72
2018-12-02T03:25:20.112Z,90.72
2018-12-02T03:27:48.352Z,90.74
2018-12-02T03:30:35.999Z,90.78
2018-12-02T03:33:04.219Z,90.71
2018-12-02T03:35:32.459Z,90.75
2018-12-02T03:38:00.661Z,90.76
2018-12-02T03:40:29.209Z,90.85
2018-12-02T03:42:57.461Z,90.86
2018-12-02T03:45:26.696Z,90.96
2018-12-02T03:47:54.905Z,90.91
2018-12-02T03:50:23.845Z,91.03
2018-12-02T03:52:52.063Z,91.02
2018-12-02T03:55:20.290Z,91.06
2018-12-02T03:57:48.489Z,91.14
2018-12-02T04:00:36.143Z,91.02
2018-12-02T04:03:04.384Z,91.08
2018-12-02T04:05:32.616Z,91.04
2018-12-02T04:08:00.833Z,91.10
2018-12-02T04:10:29.051Z,91.06
2018-12-02T04:12:57.273Z,91.04
2018-12-02T04:15:25.874Z,90.97
2018-12-02T04:17:54.096Z,91.03
2018-12-02T04:20:22.493Z,91.02
2018-12-02T04:22:51.630Z,90.94
2018-12-02T04:25:21.012Z,90.92
2018-12-02T04:27:49.262Z,90.96
2018-12-02T04:30:18.423Z,90.86
2018-12-02T04:32:47.597Z,90.71
2018-12-02T04:35:35.264Z,90.52
2018-12-02T04:38:03.529Z,90.51
2018-12-02T04:40:31.720Z,90.52
2018-12-02T04:42:59.968Z,90.40
2018-12-02T04:45:28.177Z,90.21
2018-12-02T04:47:56.445Z,90.19
2018-12-02T04:50:25.365Z,90.09
2018-12-02T04:52:53.721Z,90.01
2018-12-02T04:55:21.971Z,89.89
2018-12-02T04:57:50.205Z,89.79
2018-12-02T05:00:19.398Z,89.73
2018-12-02T05:02:51.307Z,89.63
2018-12-02T05:05:27.182Z,89.52
2018-12-02T05:07:55.432Z,89.44
2018-12-02T05:10:23.636Z,89.43
2018-12-02T05:12:52.216Z,89.42
2018-12-02T05:15:21.282Z,89.32
2018-12-02T05:17:49.514Z,89.19
2018-12-02T05:20:21.446Z,89.14
2018-12-02T05:22:49.658Z,89.11
2018-12-02T05:25:18.722Z,89.00
2018-12-02T05:27:47.000Z,88.91
2018-12-02T05:30:35.107Z,89.06
2018-12-02T05:33:03.349Z,88.91
2018-12-02T05:35:31.569Z,88.78
2018-12-02T05:37:59.797Z,88.81
2018-12-02T05:40:28.021Z,88.53
2018-12-02T05:42:56.259Z,88.54
2018-12-02T05:45:24.474Z,88.42
2018-12-02T05:47:52.829Z,88.30
2018-12-02T05:50:24.873Z,88.35
2018-12-02T05:53:02.341Z,88.29
2018-12-02T05:55:50.538Z,88.14
2018-12-02T05:58:18.784Z,88.13
2018-12-02T06:00:47.000Z,88.14
2018-12-02T06:03:15.231Z,88.32
2018-12-02T06:05:43.464Z,87.92
2018-12-02T06:08:11.689Z,87.91
2018-12-02T06:10:39.909Z,87.90
2018-12-02T06:13:08.155Z,87.87
2018-12-02T06:15:36.364Z,87.61
2018-12-02T06:18:04.578Z,87.70
2018-12-02T06:20:32.805Z,87.58
2018-12-02T06:23:01.005Z,87.36
2018-12-02T06:25:29.219Z,87.45
2018-12-02T06:27:57.446Z,87.74
2018-12-02T06:30:26.726Z,87.30
2018-12-02T06:33:14.969Z,87.08
2018-12-02T06:35:43.210Z,87.16
2018-12-02T06:38:11.427Z,86.90
2018-12-02T06:40:39.654Z,87.09
2018-12-02T06:43:07.865Z,86.87
2018-12-02T06:45:36.104Z,86.51
2018-12-02T06:48:04.312Z,86.54
2018-12-02T06:50:32.554Z,86.67
2018-12-02T06:53:00.787Z,86.56
2018-12-02T06:56:07.816Z,86.15
2018-12-02T06:58:39.017Z,86.12
2018-12-02T07:01:28.177Z,86.26
2018-12-02T07:04:18.066Z,86.22
2018-12-02T07:06:46.339Z,86.09
2018-12-02T07:09:14.566Z,85.35
2018-12-02T07:11:42.792Z,85.24
2018-12-02T07:14:10.997Z,85.41
2018-12-02T07:16:39.308Z,85.09
2018-12-02T07:19:09.859Z,85.23
2018-12-02T07:21:38.238Z,85.20
2018-12-02T07:24:07.560Z,84.80
2018-12-02T07:26:35.796Z,84.90
2018-12-02T07:29:04.003Z,84.90
2018-12-02T07:31:32.234Z,85.01
2018-12-02T07:34:00.444Z,84.73
2018-12-02T07:36:28.686Z,84.75
2018-12-02T07:39:28.545Z,84.49
2018-12-02T07:41:56.787Z,84.44
2018-12-02T07:44:25.000Z,84.24
2018-12-02T07:46:53.233Z,84.23
2018-12-02T07:49:21.431Z,84.59
2018-12-02T07:51:50.937Z,84.18
2018-12-02T07:54:19.117Z,83.85
2018-12-02T07:56:47.302Z,83.96
2018-12-02T07:59:15.535Z,83.96
2018-12-02T08:01:43.726Z,83.80
2018-12-02T08:04:11.972Z,84.02
2018-12-02T08:06:40.204Z,84.03
2018-12-02T08:09:08.425Z,84.30
2018-12-02T08:11:36.640Z,83.53
2018-12-02T08:14:04.866Z,83.59
2018-12-02T08:16:33.093Z,83.35
2018-12-02T08:19:01.355Z,83.77
2018-12-02T08:21:29.566Z,83.67
2018-12-02T08:23:57.774Z,83.23
2018-12-02T08:26:26.489Z,83.75
2018-12-02T08:28:54.726Z,83.45
2018-12-02T08:31:22.937Z,83.40
2018-12-02T08:33:51.534Z,83.88
2018-12-02T08:36:19.771Z,83.88
2018-12-02T08:38:48.027Z,83.09
2018-12-02T08:41:16.280Z,83.23
2018-12-02T08:43:44.502Z,83.58
2018-12-02T08:46:12.697Z,83.14
2018-12-02T08:48:40.954Z,83.12
2018-12-02T08:51:09.168Z,83.22
2018-12-02T08:53:37.392Z,83.14
2018-12-02T08:56:05.606Z,82.89
2018-12-02T08:58:33.830Z,82.78
2018-12-02T09:01:02.088Z,82.94
2018-12-02T09:03:30.303Z,83.43
2018-12-02T09:05:58.539Z,82.84
2018-12-02T09:08:26.801Z,83.02
2018-12-02T09:10:55.022Z,82.86
2018-12-02T09:13:23.235Z,83.10
2018-12-02T09:15:51.477Z,83.01
2018-12-02T09:18:19.706Z,83.57
2018-12-02T09:20:47.927Z,83.36
2018-12-02T09:23:16.127Z,83.23
2018-12-02T09:25:44.350Z,83.22
2018-12-02T09:28:12.558Z,82.84
2018-12-02T09:30:40.827Z,82.43
2018-12-02T09:33:09.030Z,82.30
2018-12-02T09:35:37.251Z,82.16
2018-12-02T09:38:06.017Z,82.62
2018-12-02T09:40:34.241Z,82.64
2018-12-02T09:43:02.479Z,82.77
2018-12-02T09:45:30.938Z,82.50
2018-12-02T09:48:18.586Z,82.35
2018-12-02T09:50:46.821Z,83.02
2018-12-02T09:53:15.049Z,83.15
2018-12-02T09:55:45.274Z,83.02
2018-12-02T09:58:32.943Z,82.37
2018-12-02T10:01:01.240Z,82.51
2018-12-02T10:03:29.444Z,82.48
2018-12-02T10:05:57.691Z,82.14
2018-12-02T10:08:25.896Z,82.23
2018-12-02T10:10:54.106Z,81.74
2018-12-02T10:13:23.484Z,82.31
2018-12-02T10:15:51.693Z,81.98
2018-12-02T10:18:19.902Z,81.75
2018-12-02T10:20:48.120Z,82.42
2018-12-02T10:23:16.348Z,81.81
2018-12-02T10:28:32.752Z,81.73
2018-12-02T10:31:00.967Z,82.52
2018-12-02T10:33:29.193Z,82.43
2018-12-02T10:35:57.417Z,82.04
2018-12-02T10:38:25.648Z,81.33
2018-12-02T10:40:53.897Z,81.84
2018-12-02T10:43:22.133Z,81.96
2018-12-02T10:45:50.400Z,81.77
2018-12-02T10:48:18.690Z,81.68
2018-12-02T10:50:46.945Z,81.87
2018-12-02T10:53:17.218Z,81.41
2018-12-02T10:55:49.667Z,82.04
2018-12-02T10:58:37.324Z,81.18
2018-12-02T11:01:27.623Z,81.23
2018-12-02T11:03:55.858Z,81.65
2018-12-02T11:06:24.070Z,81.33
2018-12-02T11:08:52.281Z,81.37
2018-12-02T11:11:20.501Z,82.28
2018-12-02T11:13:48.733Z,82.50
2018-12-02T11:16:16.956Z,82.10
2018-12-02T11:18:45.213Z,82.17
2018-12-02T11:21:13.451Z,82.06
2018-12-02T11:23:41.680Z,81.90
2018-12-02T11:26:09.875Z,81.72
2018-12-02T11:28:38.103Z,82.00
2018-12-02T11:31:07.022Z,81.80
2018-12-02T11:33:35.262Z,81.92
2018-12-02T11:36:03.527Z,82.01
2018-12-02T11:38:31.749Z,82.34
2018-12-02T11:40:59.988Z,81.67
2018-12-02T11:43:28.239Z,81.56
2018-12-02T11:45:56.447Z,81.41
2018-12-02T11:48:24.651Z,81.43
2018-12-02T11:50:52.911Z,81.50
2018-12-02T11:53:21.156Z,81.40
2018-12-02T11:55:49.399Z,81.52
2018-12-02T11:58:17.580Z,81.62
2018-12-02T12:00:45.789Z,81.51
2018-12-02T12:03:14.080Z,82.10
2018-12-02T12:05:42.301Z,81.85
2018-12-02T12:08:11.687Z,82.30
2018-12-02T12:10:39.964Z,81.94
2018-12-02T12:13:08.198Z,82.36
2018-12-02T12:15:37.162Z,82.02
2018-12-02T12:18:06.747Z,82.43
2018-12-02T12:20:39.129Z,82.43
2018-12-02T12:23:08.720Z,82.35
2018-12-02T12:25:36.943Z,82.55
2018-12-02T12:28:05.491Z,82.53
2018-12-02T12:30:33.876Z,82.86
2018-12-02T12:33:02.104Z,83.35
2018-12-02T12:35:30.481Z,83.46
2018-12-02T12:37:58.687Z,83.54
2018-12-02T12:40:37.465Z,84.07
2018-12-02T12:43:28.844Z,83.97
2018-12-02T12:45:57.568Z,84.73
2018-12-02T12:48:25.761Z,84.70
2018-12-02T12:50:54.001Z,84.83
2018-12-02T12:53:22.212Z,85.14
2018-12-02T12:55:51.042Z,85.53
2018-12-02T12:58:19.206Z,85.81
2018-12-02T13:00:47.693Z,85.57
2018-12-02T13:03:15.966Z,85.71
2018-12-02T13:05:44.699Z,86.04
2018-12-02T13:08:14.361Z,86.78
2018-12-02T13:10:42.572Z,86.78
2018-12-02T13:13:10.820Z,86.41
2018-12-02T13:15:39.043Z,86.25
2018-12-02T13:18:08.549Z,86.80
2018-12-02T13:20:56.182Z,86.95
2018-12-02T13:23:24.424Z,87.05
2018-12-02T13:25:52.625Z,86.84
2018-12-02T13:28:20.865Z,87.20
2018-12-02T13:30:49.247Z,86.80
2018-12-02T13:33:17.488Z,87.18
2018-12-02T13:35:45.720Z,86.72
2018-12-02T13:38:13.945Z,87.22
2018-12-02T13:40:43.072Z,87.06
2018-12-02T13:43:30.762Z,86.49
2018-12-02T13:45:58.995Z,86.49
2018-12-02T13:48:27.236Z,86.76
2018-12-02T13:50:55.442Z,86.58
2018-12-02T13:53:23.677Z,86.65
2018-12-02T13:55:52.193Z,87.03
2018-12-02T13:58:20.409Z,86.71
2018-12-02T14:00:48.644Z,86.75
2018-12-02T14:03:16.892Z,86.84
2018-12-02T14:06:05.057Z,87.00
2018-12-02T14:08:33.306Z,87.00
2018-12-02T14:11:01.515Z,86.71
2018-12-02T14:13:29.893Z,87.56
2018-12-02T14:16:36.908Z,87.43
2018-12-02T14:19:26.151Z,87.69
2018-12-02T14:21:54.391Z,87.73
2018-12-02T14:24:22.637Z,88.25
2018-12-02T14:26:51.323Z,88.62
2018-12-02T14:29:30.856Z,89.40
2018-12-02T14:32:00.880Z,89.06
2018-12-02T14:34:29.254Z,89.85
2018-12-02T14:36:57.481Z,89.64
2018-12-02T14:39:25.739Z,90.35
2018-12-02T14:41:53.950Z,90.06
2018-12-02T14:44:22.196Z,90.84
2018-12-02T14:46:50.403Z,91.10
2018-12-02T14:49:18.674Z,91.02
2018-12-02T14:51:46.892Z,92.18
2018-12-02T14:54:15.148Z,91.99
2018-12-02T14:56:43.449Z,92.24
2018-12-02T14:59:11.588Z,92.62
2018-12-02T15:01:39.827Z,92.90
2018-12-02T15:04:08.027Z,92.67
2018-12-02T15:06:36.275Z,92.42
2018-12-02T15:09:07.832Z,92.92
2018-12-02T15:11:36.105Z,93.87
2018-12-02T15:14:04.907Z,93.99
2018-12-02T15:16:33.158Z,93.87
2018-12-02T15:19:01.368Z,94.58
2018-12-02T15:21:29.610Z,94.79
2018-12-02T15:23:57.830Z,94.92
2018-12-02T15:26:26.060Z,95.42
2018-12-02T15:28:54.295Z,95.51
2018-12-02T15:31:22.588Z,95.65
2018-12-02T15:33:51.127Z,96.48
2018-12-02T15:36:19.410Z,95.79
2018-12-02T15:38:47.660Z,96.14
2018-12-02T15:41:15.927Z,95.64
2018-12-02T15:43:44.142Z,95.63
2018-12-02T15:46:12.393Z,96.44
2018-12-02T15:48:40.598Z,96.08
2018-12-02T15:51:28.314Z,96.50
2018-12-02T15:53:56.538Z,97.09
2018-12-02T15:56:24.749Z,96.82
2018-12-02T15:58:52.969Z,97.04
2018-12-02T16:01:21.196Z,96.59
2018-12-02T16:03:49.406Z,96.83
2018-12-02T16:06:17.649Z,96.98
2018-12-02T16:08:45.864Z,97.31
2018-12-02T16:11:14.098Z,97.69
2018-12-02T16:13:42.323Z,97.40
2018-12-02T16:16:10.550Z,97.33
2018-12-02T16:18:38.794Z,97.86
2018-12-02T16:21:07.409Z,97.74
2018-12-02T16:23:35.726Z,97.67
2018-12-02T16:26:03.965Z,98.31
2018-12-02T16:28:32.186Z,98.06
2018-12-02T16:31:00.416Z,98.11
2018-12-02T16:33:28.634Z,98.51
2018-12-02T16:35:56.833Z,98.48
2018-12-02T16:38:25.090Z,98.72
2018-12-02T16:40:53.423Z,98.49
2018-12-02T16:43:21.663Z,98.97
2018-12-02T16:45:49.877Z,99.07
2018-12-02T16:48:18.191Z,99.17
2018-12-02T16:50:47.730Z,99.62
2018-12-02T16:53:21.405Z,99.48
2018-12-02T16:56:09.887Z,99.76
2018-12-02T16:59:16.942Z,99.76
2018-12-02T17:01:47.597Z,99.46
2018-12-02T17:04:15.845Z,100.00
2018-12-02T17:06:44.103Z,99.68
2018-12-02T17:09:13.125Z,99.51
2018-12-02T17:11:42.298Z,99.37
2018-12-02T17:14:10.546Z,99.46
2018-12-02T17:16:38.802Z,99.83
2018-12-02T17:19:07.871Z,99.80
2018-12-02T17:21:36.076Z,99.76
2018-12-02T17:24:04.627Z,99.79
2018-12-02T17:26:32.894Z,99.94
2018-12-02T17:29:01.130Z,99.97
2018-12-02T17:31:50.115Z,99.93
2018-12-02T17:34:18.386Z,99.81
2018-12-02T17:36:46.588Z,99.79
2018-12-02T17:39:16.725Z,100.00
2018-12-02T17:41:47.435Z,100.00
2018-12-02T17:44:15.717Z,100.00
2018-12-02T17:46:43.929Z,100.00
2018-12-02T17:49:12.169Z,100.00
2018-12-02T17:51:40.378Z,100.00
2018-12-02T17:54:08.615Z,100.00
2018-12-02T17:56:36.834Z,100.00
2018-12-02T17:59:05.260Z,100.00
2018-12-02T18:01:33.403Z,100.00
2018-12-02T18:04:01.639Z,100.00
2018-12-02T18:06:29.854Z,100.00
2018-12-02T18:08:58.110Z,100.00
2018-12-02T18:11:26.316Z,100.00
2018-12-02T18:13:54.718Z,100.00
2018-12-02T18:16:22.936Z,100.00
2018-12-02T18:18:51.143Z,100.00
2018-12-02T18:21:19.368Z,100.00
2018-12-02T18:23:47.809Z,100.00
2018-12-02T18:26:15.987Z,100.00
2018-12-02T18:28:44.193Z,100.00
2018-12-02T18:31:12.417Z,100.00
2018-12-02T18:33:40.798Z,100.00
2018-12-02T18:36:29.565Z,100.00
2018-12-02T18:38:57.847Z,100.00
2018-12-02T18:42:04.866Z,100.00
2018-12-02T18:44:33.169Z,100.00
2018-12-02T18:47:01.418Z,100.00
2018-12-02T18:49:29.674Z,100.00
2018-12-02T18:51:57.902Z,100.00
2018-12-02T18:54:26.175Z,100.00
2018-12-02T18:56:54.385Z,100.00
2018-12-02T18:59:22.599Z,100.00
2018-12-02T19:01:50.822Z,100.00
2018-12-02T19:04:19.028Z,100.00
2018-12-02T19:06:47.290Z,100.00
2018-12-02T19:09:15.690Z,100.00
2018-12-02T19:11:43.951Z,100.00
2018-12-02T19:14:12.160Z,100.00
2018-12-02T19:16:40.385Z,100.00
2018-12-02T19:19:08.944Z,100.00
2018-12-02T19:21:37.224Z,100.00
2018-12-02T19:24:06.683Z,100.00
2018-12-02T19:26:34.961Z,100.00
2018-12-02T19:29:03.174Z,100.00
2018-12-02T19:31:31.427Z,100.00
2018-12-02T19:33:59.712Z,100.00
2018-12-02T19:36:30.313Z,100.00
2018-12-02T19:38:58.545Z,100.00
2018-12-02T19:41:26.810Z,100.00
2018-12-02T19:43:55.062Z,100.00
2018-12-02T19:46:23.318Z,100.00
2018-12-02T19:48:51.673Z,100.00
2018-12-02T19:51:19.954Z,100.00
2018-12-02T19:53:48.173Z,100.00
2018-12-02T19:56:16.424Z,100.00
2018-12-02T19:58:44.626Z,100.00
2018-12-02T20:01:12.859Z,100.00
2018-12-02T20:03:41.078Z,100.00
2018-12-02T20:06:09.480Z,100.00
2018-12-02T20:08:37.685Z,100.00
2018-12-02T20:11:05.951Z,100.00
2018-12-02T20:13:34.167Z,100.00
2018-12-02T20:16:21.501Z,100.00
2018-12-02T20:18:49.729Z,100.00
2018-12-02T20:21:19.902Z,100.00
2018-12-02T20:24:07.221Z,100.00
2018-12-02T20:26:35.465Z,100.00
2018-12-02T20:29:03.681Z,100.00
2018-12-02T20:31:31.929Z,100.00
2018-12-02T20:34:00.184Z,100.00
2018-12-02T20:36:28.430Z,100.00
2018-12-02T20:38:56.657Z,100.00
2018-12-02T20:41:24.888Z,100.00
2018-12-02T20:43:53.218Z,100.00
2018-12-02T20:46:21.390Z,100.00
2018-12-02T20:48:49.698Z,100.00
2018-12-02T20:51:17.897Z,100.00
2018-12-02T20:53:46.140Z,100.00
2018-12-02T20:56:14.360Z,100.00
2018-12-02T20:58:42.619Z,100.00
2018-12-02T21:01:10.828Z,100.00
2018-12-02T21:03:42.009Z,100.00
2018-12-02T21:06:29.701Z,100.00
2018-12-02T21:08:57.962Z,100.00
2018-12-02T21:11:26.170Z,100.00
2018-12-02T21:13:54.440Z,100.00
2018-12-02T21:16:22.675Z,100.00
2018-12-02T21:18:50.915Z,100.00
2018-12-02T21:21:19.133Z,100.00
2018-12-02T21:23:47.395Z,100.00
2018-12-02T21:26:15.600Z,100.00
2018-12-02T21:28:43.900Z,100.00
2018-12-02T21:31:12.104Z,100.00
2018-12-02T21:33:40.354Z,100.00
2018-12-02T21:36:08.581Z,100.00
2018-12-02T21:38:37.026Z,100.00
2018-12-02T21:41:05.408Z,100.00
2018-12-02T21:43:33.690Z,100.00
2018-12-02T21:46:01.903Z,100.00
2018-12-02T21:48:30.149Z,100.00
2018-12-02T21:50:58.364Z,100.00
2018-12-02T21:53:26.604Z,100.00
2018-12-02T21:55:54.814Z,100.00
2018-12-02T21:58:23.019Z,100.00
2018-12-02T22:01:10.368Z,100.00
2018-12-02T22:03:38.632Z,100.00
2018-12-02T22:06:06.847Z,100.00
2018-12-02T22:08:35.058Z,100.00
2018-12-02T22:11:03.307Z,100.00
2018-12-02T22:13:31.509Z,100.00
2018-12-02T22:15:59.753Z,100.00
2018-12-02T22:18:27.955Z,100.00
2018-12-02T22:20:56.211Z,100.00
2018-12-02T22:23:24.444Z,100.00
2018-12-02T22:25:52.683Z,100.00
2018-12-02T22:28:20.899Z,100.00
2018-12-02T22:30:49.135Z,100.00
2018-12-02T22:33:17.617Z,100.00
2018-12-02T22:35:45.859Z,100.00
2018-12-02T22:38:14.116Z,100.00
2018-12-02T22:40:42.450Z,100.00
2018-12-02T22:43:10.770Z,100.00
2018-12-02T22:45:39.039Z,100.00
2018-12-02T22:48:07.253Z,100.00
2018-12-02T22:50:35.530Z,100.00
2018-12-02T22:53:03.828Z,100.00
2018-12-02T22:55:32.094Z,100.00
2018-12-02T22:58:00.386Z,100.00
2018-12-02T23:01:07.149Z,100.00
2018-12-02T23:03:35.532Z,100.00
2018-12-02T23:06:03.927Z,100.00
2018-12-02T23:08:32.288Z,100.00
2018-12-02T23:11:00.522Z,100.00
2018-12-02T23:13:28.828Z,100.00
2018-12-02T23:15:57.148Z,100.00
2018-12-02T23:18:25.384Z,100.00
2018-12-02T23:20:53.657Z,100.00
2018-12-02T23:23:21.859Z,100.00
2018-12-02T23:25:50.313Z,100.00
2018-12-02T23:28:18.531Z,100.00
2018-12-02T23:30:46.837Z,100.00
2018-12-02T23:33:15.098Z,100.00
2018-12-02T23:35:43.499Z,100.00
2018-12-02T23:38:11.760Z,100.00
2018-12-02T23:40:39.975Z,100.00
2018-12-02T23:43:08.216Z,100.00
2018-12-02T23:45:36.445Z,100.00
2018-12-02T23:48:04.702Z,100.00
2018-12-02T23:50:32.943Z,100.00
2018-12-02T23:53:01.177Z,100.00
2018-12-02T23:55:29.398Z,100.00
2018-12-02T23:57:57.706Z,100.00
